createdAt,value
2016-11-22T00:00:46.803Z,85.46
2016-11-22T00:01:46.314Z,85.27
2016-11-22T00:02:45.859Z,85.55
2016-11-22T00:03:45.979Z,85.27
2016-11-22T00:04:45.960Z,85.84
2016-11-22T00:05:46.082Z,85.84
2016-11-22T00:06:46.212Z,85.55
2016-11-22T00:07:46.570Z,86.41
2016-11-22T00:08:46.091Z,86.41
2016-11-22T00:09:46.716Z,87.55
2016-11-22T00:10:46.211Z,86.79
2016-11-22T00:11:45.988Z,87.17
2016-11-22T00:12:47.433Z,87.46
2016-11-22T00:13:46.474Z,87.27
2016-11-22T00:14:46.958Z,87.55
2016-11-22T00:15:45.990Z,87.46
2016-11-22T00:16:46.115Z,87.36
2016-11-22T00:17:46.598Z,87.46
2016-11-22T00:18:46.699Z,87.65
2016-11-22T00:19:46.358Z,87.55
2016-11-22T00:20:46.234Z,87.65
2016-11-22T00:21:46.454Z,87.55
2016-11-22T00:22:46.692Z,87.36
2016-11-22T00:23:46.234Z,87.36
2016-11-22T00:24:46.118Z,87.27
2016-11-22T00:25:45.870Z,87.74
2016-11-22T00:26:47.049Z,87.17
2016-11-22T00:27:46.240Z,87.27
2016-11-22T00:28:46.573Z,87.17
2016-11-22T00:29:47.170Z,86.88
2016-11-22T00:30:47.205Z,86.88
2016-11-22T00:31:46.356Z,86.88
2016-11-22T00:32:46.721Z,86.79
2016-11-22T00:33:46.366Z,86.6
2016-11-22T00:34:46.327Z,87.07
2016-11-22T00:35:46.332Z,87.36
2016-11-22T00:36:46.573Z,87.07
2016-11-22T00:37:46.466Z,86.69
2016-11-22T00:38:46.577Z,87.17
2016-11-22T00:39:46.968Z,87.17
2016-11-22T00:40:46.466Z,87.36
2016-11-22T00:41:46.354Z,87.27
2016-11-22T00:42:47.209Z,87.51
2016-11-22T00:43:46.579Z,87.89
2016-11-22T00:44:46.609Z,87.89
2016-11-22T00:45:46.497Z,88.37
2016-11-22T00:46:46.450Z,88.75
2016-11-22T00:47:46.254Z,88.46
2016-11-22T00:48:47.082Z,88.56
2016-11-22T00:49:47.310Z,89.51
2016-11-22T00:50:47.315Z,88.93
2016-11-22T00:51:46.741Z,89.61
2016-11-22T00:52:46.613Z,89.7
2016-11-22T00:53:46.613Z,89.98
2016-11-22T00:54:46.616Z,90.27
2016-11-22T00:55:47.314Z,90.56
2016-11-22T00:56:47.111Z,90.08
2016-11-22T00:57:46.812Z,90.36
2016-11-22T00:58:46.617Z,90.17
2016-11-22T00:59:46.708Z,90.08
2016-11-22T01:00:47.209Z,90.08
2016-11-22T01:01:47.112Z,89.89
2016-11-22T01:02:46.835Z,90.56
2016-11-22T01:03:46.990Z,90.36
2016-11-22T01:04:46.704Z,90.08
2016-11-22T01:05:47.087Z,90.36
2016-11-22T01:06:47.182Z,89.79
2016-11-22T01:07:47.306Z,89.7
2016-11-22T01:08:46.839Z,89.89
2016-11-22T01:09:46.733Z,89.7
2016-11-22T01:10:47.186Z,90.17
2016-11-22T01:11:47.223Z,90.36
2016-11-22T01:12:47.447Z,89.98
2016-11-22T01:13:46.873Z,90.17
2016-11-22T01:14:46.974Z,90.27
2016-11-22T01:15:46.940Z,90.27
2016-11-22T01:16:47.579Z,90.36
2016-11-22T01:17:47.356Z,90.36
2016-11-22T01:18:48.055Z,91.13
2016-11-22T01:19:47.479Z,91.13
2016-11-22T01:20:47.477Z,91.03
2016-11-22T01:21:47.569Z,91.08
2016-11-22T01:22:47.718Z,91.17
2016-11-22T01:23:47.440Z,91.17
2016-11-22T01:24:47.548Z,91.46
2016-11-22T01:25:47.941Z,91.08
2016-11-22T01:26:47.833Z,91.6
2016-11-22T01:27:47.699Z,92.18
2016-11-22T01:28:47.432Z,92.79
2016-11-22T01:29:47.443Z,92.41
2016-11-22T01:30:47.435Z,91.94
2016-11-22T01:31:47.916Z,91.75
2016-11-22T01:32:47.578Z,91.56
2016-11-22T01:33:47.930Z,91.31
2016-11-22T01:34:47.677Z,90.75
2016-11-22T01:35:47.606Z,90.75
2016-11-22T01:36:47.458Z,90.36
2016-11-22T01:37:47.623Z,90.65
2016-11-22T01:38:47.577Z,90.27
2016-11-22T01:39:47.604Z,90.84
2016-11-22T01:40:48.089Z,90.84
2016-11-22T01:41:47.606Z,89.89
2016-11-22T01:42:47.963Z,90.46
2016-11-22T01:43:47.606Z,90.56
2016-11-22T01:44:48.048Z,90.89
2016-11-22T01:45:47.603Z,91.65
2016-11-22T01:46:47.724Z,92.32
2016-11-22T01:47:47.934Z,92.89
2016-11-22T01:48:47.352Z,92.99
2016-11-22T01:49:48.170Z,93.84
2016-11-22T01:50:47.932Z,94.56
2016-11-22T01:51:48.657Z,95.03
2016-11-22T01:52:47.962Z,95.7
2016-11-22T01:53:47.735Z,96.17
2016-11-22T01:54:48.290Z,95.98
2016-11-22T01:55:48.104Z,96.74
2016-11-22T01:56:47.923Z,97.22
2016-11-22T01:57:47.825Z,97.03
2016-11-22T01:58:47.986Z,97.6
2016-11-22T01:59:48.356Z,97.74
2016-11-22T02:00:48.181Z,98.22
2016-11-22T02:01:48.089Z,98.31
2016-11-22T02:02:48.181Z,98.88
2016-11-22T02:03:48.459Z,99.07
2016-11-22T02:04:47.980Z,99.64
2016-11-22T02:05:47.957Z,99.36
2016-11-22T02:06:48.554Z,99.36
2016-11-22T02:07:48.471Z,99.36
2016-11-22T02:08:48.339Z,99.64
2016-11-22T02:09:49.025Z,99.64
2016-11-22T02:10:48.336Z,99.99
2016-11-22T02:11:48.793Z,99.99
2016-11-22T02:12:48.563Z,99.99
2016-11-22T02:13:48.104Z,99.99
2016-11-22T02:14:48.697Z,99.99
2016-11-22T02:15:48.341Z,99.99
2016-11-22T02:16:48.823Z,99.99
2016-11-22T02:17:48.804Z,99.99
2016-11-22T02:18:49.026Z,99.99
2016-11-22T02:19:49.054Z,99.99
2016-11-22T02:20:48.681Z,99.99
2016-11-22T02:21:48.943Z,99.99
2016-11-22T02:22:49.063Z,99.99
2016-11-22T02:23:48.818Z,99.99
2016-11-22T02:24:48.953Z,99.99
2016-11-22T02:25:48.825Z,99.99
2016-11-22T02:26:49.298Z,99.99
2016-11-22T02:27:49.308Z,99.99
2016-11-22T02:28:48.579Z,99.99
2016-11-22T02:29:48.587Z,99.99
2016-11-22T02:30:48.689Z,99.99
2016-11-22T02:31:50.120Z,99.99
2016-11-22T02:32:48.946Z,99.99
2016-11-22T02:33:49.312Z,99.99
2016-11-22T02:34:50.017Z,99.99
2016-11-22T02:35:49.908Z,99.99
2016-11-22T02:36:49.409Z,99.99
2016-11-22T02:37:49.436Z,99.99
2016-11-22T02:38:50.023Z,99.99
2016-11-22T02:39:49.420Z,99.99
2016-11-22T02:40:49.188Z,99.99
2016-11-22T02:41:49.432Z,99.99
2016-11-22T02:42:49.644Z,99.99
2016-11-22T02:43:49.676Z,99.99
2016-11-22T02:44:49.393Z,99.99
2016-11-22T02:45:49.194Z,99.99
2016-11-22T02:46:50.752Z,99.99
2016-11-22T02:47:49.404Z,99.99
2016-11-22T02:48:49.402Z,99.99
2016-11-22T02:49:51.009Z,99.99
2016-11-22T02:50:50.156Z,99.99
2016-11-22T02:51:49.915Z,99.99
2016-11-22T02:52:49.442Z,99.99
2016-11-22T02:53:50.476Z,99.99
2016-11-22T02:54:50.877Z,99.99
2016-11-22T02:55:49.168Z,99.99
2016-11-22T02:56:49.557Z,99.99
2016-11-22T02:57:49.916Z,99.99
2016-11-22T02:58:49.171Z,99.99
2016-11-22T02:59:49.435Z,99.99
2016-11-22T03:00:49.323Z,99.99
2016-11-22T03:01:49.795Z,99.99
2016-11-22T03:02:49.087Z,99.99
2016-11-22T03:03:49.684Z,99.99
2016-11-22T03:04:48.963Z,99.99
2016-11-22T03:05:50.171Z,99.99
2016-11-22T03:06:49.545Z,99.99
2016-11-22T03:07:49.448Z,99.99
2016-11-22T03:08:49.324Z,99.99
2016-11-22T03:09:49.328Z,99.99
2016-11-22T03:10:49.328Z,99.99
2016-11-22T03:11:49.073Z,99.99
2016-11-22T03:12:49.060Z,99.99
2016-11-22T03:13:49.291Z,99.99
2016-11-22T03:14:49.657Z,99.99
2016-11-22T03:15:50.052Z,99.99
2016-11-22T03:16:49.923Z,99.99
2016-11-22T03:17:49.444Z,99.99
2016-11-22T03:18:49.685Z,99.99
2016-11-22T03:19:49.217Z,99.99
2016-11-22T03:20:49.090Z,99.99
2016-11-22T03:21:49.319Z,99.99
2016-11-22T03:22:49.812Z,99.99
2016-11-22T03:23:49.308Z,99.99
2016-11-22T03:24:49.448Z,99.02
2016-11-22T03:25:49.773Z,96.65
2016-11-22T03:26:49.676Z,94.03
2016-11-22T03:27:49.575Z,92.65
2016-11-22T03:28:49.454Z,91.99
2016-11-22T03:29:49.677Z,91.22
2016-11-22T03:30:50.273Z,90.6
2016-11-22T03:31:49.672Z,90.22
2016-11-22T03:32:49.326Z,89.94
2016-11-22T03:33:50.281Z,88.79
2016-11-22T03:34:50.496Z,89.36
2016-11-22T03:35:50.058Z,89.65
2016-11-22T03:36:49.579Z,90.31
2016-11-22T03:37:50.030Z,90.03
2016-11-22T03:38:49.438Z,90.31
2016-11-22T03:39:49.686Z,91.13
2016-11-22T03:40:50.298Z,90.84
2016-11-22T03:41:49.581Z,91.03
2016-11-22T03:42:50.070Z,90.94
2016-11-22T03:43:49.945Z,90.84
2016-11-22T03:44:49.910Z,91.03
2016-11-22T03:45:49.941Z,90.94
2016-11-22T03:46:49.779Z,90.75
2016-11-22T03:47:50.067Z,90.36
2016-11-22T03:48:49.672Z,89.98
2016-11-22T03:49:50.427Z,89.98
2016-11-22T03:50:49.789Z,89.7
2016-11-22T03:51:49.792Z,89.89
2016-11-22T03:52:49.676Z,90.08
2016-11-22T03:53:49.703Z,90.65
2016-11-22T03:54:50.062Z,90.75
2016-11-22T03:55:50.179Z,90.75
2016-11-22T03:56:49.924Z,90.56
2016-11-22T03:57:49.937Z,90.46
2016-11-22T03:58:50.189Z,90.84
2016-11-22T03:59:50.641Z,91.13
2016-11-22T04:00:49.941Z,91.79
2016-11-22T04:01:50.303Z,91.89
2016-11-22T04:02:49.948Z,92.46
2016-11-22T04:03:50.313Z,92.36
2016-11-22T04:04:49.916Z,92.46
2016-11-22T04:05:50.324Z,92.36
2016-11-22T04:06:50.200Z,92.27
2016-11-22T04:07:50.303Z,92.65
2016-11-22T04:08:50.529Z,92.94
2016-11-22T04:09:49.919Z,92.55
2016-11-22T04:10:49.918Z,92.55
2016-11-22T04:11:49.924Z,92.18
2016-11-22T04:12:50.213Z,92.36
2016-11-22T04:13:50.410Z,92.65
2016-11-22T04:14:50.063Z,92.55
2016-11-22T04:15:50.531Z,91.6
2016-11-22T04:16:50.183Z,91.89
2016-11-22T04:17:50.044Z,91.51
2016-11-22T04:18:50.533Z,91.79
2016-11-22T04:19:50.427Z,91.6
2016-11-22T04:20:50.320Z,91.99
2016-11-22T04:21:50.303Z,92.46
2016-11-22T04:22:50.287Z,92.74
2016-11-22T04:23:50.582Z,93.22
2016-11-22T04:24:50.530Z,93.41
2016-11-22T04:25:50.318Z,93.32
2016-11-22T04:26:50.443Z,93.22
2016-11-22T04:27:50.787Z,93.41
2016-11-22T04:28:50.538Z,93.13
2016-11-22T04:29:50.688Z,92.84
2016-11-22T04:30:50.320Z,92.55
2016-11-22T04:31:50.656Z,92.55
2016-11-22T04:32:50.649Z,92.46
2016-11-22T04:33:50.665Z,92.36
2016-11-22T04:34:50.570Z,92.94
2016-11-22T04:35:51.034Z,92.27
2016-11-22T04:36:50.898Z,92.55
2016-11-22T04:37:50.768Z,92.55
2016-11-22T04:38:50.453Z,92.55
2016-11-22T04:39:50.563Z,92.65
2016-11-22T04:40:50.893Z,91.99
2016-11-22T04:41:50.915Z,91.84
2016-11-22T04:42:50.779Z,91.27
2016-11-22T04:43:51.155Z,90.98
2016-11-22T04:44:51.187Z,90.79
2016-11-22T04:45:51.299Z,91.17
2016-11-22T04:46:50.462Z,91.46
2016-11-22T04:47:50.543Z,91.55
2016-11-22T04:48:50.579Z,91.74
2016-11-22T04:49:50.784Z,91.84
2016-11-22T04:50:51.020Z,92.03
2016-11-22T04:51:51.277Z,91.65
2016-11-22T04:52:51.184Z,91.84
2016-11-22T04:53:51.157Z,91.55
2016-11-22T04:54:51.751Z,91.08
2016-11-22T04:55:51.568Z,91.46
2016-11-22T04:56:50.788Z,91.08
2016-11-22T04:57:50.949Z,90.79
2016-11-22T04:58:50.907Z,90.98
2016-11-22T04:59:51.392Z,91.08
2016-11-22T05:00:51.070Z,91.13
2016-11-22T05:01:51.189Z,91.65
2016-11-22T05:02:50.834Z,91.79
2016-11-22T05:03:51.077Z,91.7
2016-11-22T05:04:50.824Z,91.51
2016-11-22T05:05:50.583Z,91.41
2016-11-22T05:06:50.712Z,91.41
2016-11-22T05:07:50.709Z,91.22
2016-11-22T05:08:50.706Z,91.89
2016-11-22T05:09:50.820Z,91.41
2016-11-22T05:10:50.708Z,92.08
2016-11-22T05:11:50.819Z,91.99
2016-11-22T05:12:51.282Z,92.08
2016-11-22T05:13:51.539Z,92.27
2016-11-22T05:14:51.563Z,91.89
2016-11-22T05:15:52.042Z,91.89
2016-11-22T05:16:51.290Z,91.99
2016-11-22T05:17:52.009Z,91.79
2016-11-22T05:18:51.579Z,91.79
2016-11-22T05:19:52.049Z,92.18
2016-11-22T05:20:52.399Z,91.79
2016-11-22T05:21:51.919Z,91.41
2016-11-22T05:22:51.662Z,92.18
2016-11-22T05:23:52.175Z,92.27
2016-11-22T05:24:51.921Z,91.79
2016-11-22T05:25:51.562Z,92.36
2016-11-22T05:26:51.800Z,92.55
2016-11-22T05:27:51.661Z,92.55
2016-11-22T05:28:52.647Z,91.89
2016-11-22T05:29:52.041Z,91.7
2016-11-22T05:30:52.543Z,92.18
2016-11-22T05:31:51.561Z,92.27
2016-11-22T05:32:51.801Z,92.27
2016-11-22T05:33:52.051Z,92.65
2016-11-22T05:34:51.925Z,92.08
2016-11-22T05:35:52.501Z,91.6
2016-11-22T05:36:52.188Z,91.51
2016-11-22T05:37:51.814Z,91.89
2016-11-22T05:38:51.795Z,91.41
2016-11-22T05:39:52.416Z,91.41
2016-11-22T05:40:52.491Z,92.08
2016-11-22T05:41:53.980Z,92.65
2016-11-22T05:42:52.299Z,92.18
2016-11-22T05:43:51.820Z,92.55
2016-11-22T05:44:52.993Z,92.18
2016-11-22T05:45:53.019Z,92.94
2016-11-22T05:46:53.029Z,92.94
2016-11-22T05:47:52.786Z,93.03
2016-11-22T05:48:53.031Z,92.74
2016-11-22T05:49:52.774Z,92.74
2016-11-22T05:50:52.078Z,92.99
2016-11-22T05:51:53.140Z,93.55
2016-11-22T05:52:53.616Z,93.84
2016-11-22T05:53:52.907Z,93.55
2016-11-22T05:54:54.193Z,93.18
2016-11-22T05:55:52.670Z,93.74
2016-11-22T05:56:53.608Z,93.37
2016-11-22T05:57:53.699Z,93.22
2016-11-22T05:58:52.908Z,93.55
2016-11-22T05:59:52.665Z,93.18
2016-11-22T06:00:53.857Z,93.08
2016-11-22T06:01:51.960Z,93.13
2016-11-22T06:02:53.033Z,93.22
2016-11-22T06:03:53.751Z,93.79
2016-11-22T06:04:52.786Z,93.84
2016-11-22T06:05:53.273Z,94.22
2016-11-22T06:06:53.386Z,94.42
2016-11-22T06:07:53.871Z,94.6
2016-11-22T06:08:53.605Z,94.89
2016-11-22T06:09:52.668Z,94.51
2016-11-22T06:10:53.148Z,94.89
2016-11-22T06:11:52.913Z,94.89
2016-11-22T06:12:53.043Z,94.98
2016-11-22T06:13:52.763Z,94.7
2016-11-22T06:14:53.048Z,95.17
2016-11-22T06:15:53.391Z,95.36
2016-11-22T06:16:54.102Z,95.46
2016-11-22T06:17:52.671Z,95.36
2016-11-22T06:18:53.154Z,95.27
2016-11-22T06:19:53.397Z,95.84
2016-11-22T06:20:52.561Z,95.94
2016-11-22T06:21:52.798Z,96.03
2016-11-22T06:22:52.561Z,96.03
2016-11-22T06:23:52.924Z,96.41
2016-11-22T06:24:53.249Z,96.7
2016-11-22T06:25:53.638Z,96.31
2016-11-22T06:26:53.005Z,96.89
2016-11-22T06:27:52.562Z,97.08
2016-11-22T06:28:52.675Z,97.17
2016-11-22T06:29:52.913Z,97.27
2016-11-22T06:30:53.008Z,94.79
2016-11-22T06:31:52.923Z,93.22
2016-11-22T06:32:53.286Z,91.74
2016-11-22T06:33:53.646Z,91.27
2016-11-22T06:34:53.276Z,91.08
2016-11-22T06:35:53.036Z,90.41
2016-11-22T06:36:53.170Z,90.22
2016-11-22T06:37:52.896Z,89.65
2016-11-22T06:38:53.270Z,89.07
2016-11-22T06:39:52.911Z,88.84
2016-11-22T06:40:52.677Z,88.84
2016-11-22T06:41:53.531Z,88.07
2016-11-22T06:42:53.285Z,88.45
2016-11-22T06:43:52.661Z,87.69
2016-11-22T06:44:53.873Z,87.88
2016-11-22T06:45:53.043Z,87.79
2016-11-22T06:46:52.932Z,87.4
2016-11-22T06:47:53.149Z,87.31
2016-11-22T06:48:52.576Z,87.6
2016-11-22T06:49:53.520Z,88.36
2016-11-22T06:50:53.147Z,88.74
2016-11-22T06:51:53.404Z,89.12
2016-11-22T06:52:53.505Z,89.55
2016-11-22T06:53:53.298Z,90.31
2016-11-22T06:54:53.279Z,90.12
2016-11-22T06:55:53.656Z,91.08
2016-11-22T06:56:53.295Z,91.17
2016-11-22T06:57:52.699Z,90.31
2016-11-22T06:58:53.279Z,90.03
2016-11-22T06:59:53.409Z,89.5
2016-11-22T07:00:52.563Z,88.93
2016-11-22T07:01:53.280Z,89.89
2016-11-22T07:02:53.663Z,90.08
2016-11-22T07:03:53.661Z,89.55
2016-11-22T07:04:53.260Z,90.26
2016-11-22T07:05:53.401Z,91.65
2016-11-22T07:06:53.405Z,92.03
2016-11-22T07:07:53.412Z,92.89
2016-11-22T07:08:53.673Z,92.69
2016-11-22T07:09:53.769Z,93.17
2016-11-22T07:10:53.290Z,93.41
2016-11-22T07:11:53.794Z,93.41
2016-11-22T07:12:53.526Z,93.22
2016-11-22T07:13:53.294Z,93.03
2016-11-22T07:14:53.794Z,92.74
2016-11-22T07:15:53.668Z,93.03
2016-11-22T07:16:53.645Z,92.84
2016-11-22T07:17:53.911Z,92.65
2016-11-22T07:18:53.553Z,92.55
2016-11-22T07:19:54.029Z,92.84
2016-11-22T07:20:54.479Z,92.84
2016-11-22T07:21:53.428Z,92.36
2016-11-22T07:22:53.419Z,92.55
2016-11-22T07:23:53.545Z,92.84
2016-11-22T07:24:53.919Z,92.65
2016-11-22T07:25:54.363Z,93.22
2016-11-22T07:26:54.982Z,93.22
2016-11-22T07:27:53.789Z,93.89
2016-11-22T07:28:54.613Z,93.6
2016-11-22T07:29:53.791Z,94.08
2016-11-22T07:30:54.279Z,93.51
2016-11-22T07:31:54.267Z,93.79
2016-11-22T07:32:54.519Z,93.7
2016-11-22T07:33:54.163Z,94.08
2016-11-22T07:34:54.761Z,93.98
2016-11-22T07:35:54.146Z,94.27
2016-11-22T07:36:54.040Z,94.74
2016-11-22T07:37:53.648Z,94.65
2016-11-22T07:38:53.801Z,93.89
2016-11-22T07:39:54.038Z,93.89
2016-11-22T07:40:54.039Z,93.89
2016-11-22T07:41:54.036Z,93.89
2016-11-22T07:42:54.380Z,93.89
2016-11-22T07:43:54.640Z,93.51
2016-11-22T07:44:54.754Z,93.6
2016-11-22T07:45:54.652Z,93.41
2016-11-22T07:46:54.159Z,93.32
2016-11-22T07:47:55.465Z,93.08
2016-11-22T07:48:55.369Z,93.17
2016-11-22T07:49:54.294Z,92.89
2016-11-22T07:50:54.620Z,92.5
2016-11-22T07:51:54.274Z,91.74
2016-11-22T07:52:54.419Z,91.55
2016-11-22T07:53:54.408Z,91.84
2016-11-22T07:54:54.010Z,90.89
2016-11-22T07:55:54.504Z,90.93
2016-11-22T07:56:54.511Z,91.17
2016-11-22T07:57:54.187Z,90.5
2016-11-22T07:58:54.646Z,90.98
2016-11-22T07:59:54.613Z,90.5
2016-11-22T08:00:54.292Z,90.5
2016-11-22T08:01:54.152Z,90.45
2016-11-22T08:02:54.020Z,90.55
2016-11-22T08:03:54.504Z,90.79
2016-11-22T08:04:54.138Z,90.41
2016-11-22T08:05:54.408Z,90.41
2016-11-22T08:06:54.977Z,90.08
2016-11-22T08:07:54.409Z,89.5
2016-11-22T08:08:54.412Z,89.55
2016-11-22T08:09:54.179Z,88.84
2016-11-22T08:10:54.502Z,89.22
2016-11-22T08:11:54.415Z,89.12
2016-11-22T08:12:55.029Z,89.12
2016-11-22T08:13:54.491Z,89.12
2016-11-22T08:14:54.271Z,88.93
2016-11-22T08:15:54.645Z,89.03
2016-11-22T08:16:54.666Z,89.22
2016-11-22T08:17:54.383Z,89.22
2016-11-22T08:18:54.306Z,88.64
2016-11-22T08:19:54.384Z,88.26
2016-11-22T08:20:54.633Z,88.36
2016-11-22T08:21:54.779Z,88.93
2016-11-22T08:22:54.638Z,89.12
2016-11-22T08:23:54.385Z,88.07
2016-11-22T08:24:54.684Z,87.98
2016-11-22T08:25:54.509Z,87.98
2016-11-22T08:26:54.616Z,88.45
2016-11-22T08:27:54.990Z,87.79
2016-11-22T08:28:55.381Z,88.26
2016-11-22T08:29:54.899Z,88.17
2016-11-22T08:30:54.558Z,87.88
2016-11-22T08:31:54.767Z,87.88
2016-11-22T08:32:54.664Z,87.98
2016-11-22T08:33:55.103Z,88.26
2016-11-22T08:34:54.743Z,88.07
2016-11-22T08:35:55.267Z,87.98
2016-11-22T08:36:54.755Z,88.07
2016-11-22T08:37:55.269Z,88.07
2016-11-22T08:38:54.908Z,88.55
2016-11-22T08:39:54.792Z,88.07
2016-11-22T08:40:55.852Z,87.88
2016-11-22T08:41:55.388Z,88.21
2016-11-22T08:42:55.019Z,87.6
2016-11-22T08:43:55.007Z,87.35
2016-11-22T08:44:54.914Z,87.64
2016-11-22T08:45:55.601Z,87.16
2016-11-22T08:46:55.602Z,87.45
2016-11-22T08:47:55.352Z,86.98
2016-11-22T08:48:55.053Z,87.35
2016-11-22T08:49:55.738Z,86.02
2016-11-22T08:50:55.610Z,85.73
2016-11-22T08:51:54.746Z,84.78
2016-11-22T08:52:55.771Z,84.69
2016-11-22T08:53:55.234Z,84.88
2016-11-22T08:54:56.597Z,84.69
2016-11-22T08:55:55.039Z,84.2
2016-11-22T08:56:54.994Z,83.92
2016-11-22T08:57:55.603Z,83.92
2016-11-22T08:58:55.137Z,84.53
2016-11-22T08:59:54.666Z,84.53
2016-11-22T09:00:55.026Z,84.4
2016-11-22T09:01:55.025Z,86.3
2016-11-22T09:02:55.639Z,86.78
2016-11-22T09:03:55.651Z,86.98
2016-11-22T09:04:55.390Z,85.73
2016-11-22T09:05:55.396Z,86.02
2016-11-22T09:06:55.527Z,86.49
2016-11-22T09:07:55.414Z,86.49
2016-11-22T09:08:56.948Z,86.98
2016-11-22T09:09:56.115Z,87.26
2016-11-22T09:10:55.523Z,86.69
2016-11-22T09:11:56.601Z,86.4
2016-11-22T09:12:55.493Z,86.49
2016-11-22T09:13:55.531Z,86.49
2016-11-22T09:14:56.746Z,86.69
2016-11-22T09:15:56.089Z,87.54
2016-11-22T09:16:56.936Z,87.16
2016-11-22T09:17:56.004Z,87.83
2016-11-22T09:18:57.219Z,88.31
2016-11-22T09:19:57.060Z,88.31
2016-11-22T09:20:56.851Z,89.17
2016-11-22T09:21:56.735Z,89.45
2016-11-22T09:22:57.093Z,89.17
2016-11-22T09:23:56.964Z,88.59
2016-11-22T09:24:57.217Z,89.17
2016-11-22T09:25:56.338Z,90.31
2016-11-22T09:26:57.453Z,89.64
2016-11-22T09:27:57.180Z,89.64
2016-11-22T09:28:56.365Z,89.07
2016-11-22T09:29:56.139Z,89.64
2016-11-22T09:30:55.895Z,90.22
2016-11-22T09:31:55.906Z,89.83
2016-11-22T09:32:55.875Z,90.31
2016-11-22T09:33:56.140Z,90.79
2016-11-22T09:34:55.886Z,91.27
2016-11-22T09:35:55.637Z,91.64
2016-11-22T09:36:56.382Z,90.59
2016-11-22T09:37:56.733Z,91.17
2016-11-22T09:38:56.600Z,89.74
2016-11-22T09:39:57.463Z,91.07
2016-11-22T09:40:56.379Z,90.88
2016-11-22T09:41:57.101Z,89.64
2016-11-22T09:42:56.119Z,89.83
2016-11-22T09:43:56.133Z,88.4
2016-11-22T09:44:56.017Z,88.69
2016-11-22T09:45:55.768Z,89.17
2016-11-22T09:46:56.348Z,89.07
2016-11-22T09:47:56.382Z,88.21
2016-11-22T09:48:56.134Z,88.59
2016-11-22T09:49:56.033Z,87.93
2016-11-22T09:50:56.399Z,87.93
2016-11-22T09:51:56.144Z,88.21
2016-11-22T09:52:56.633Z,87.74
2016-11-22T09:53:56.623Z,88.78
2016-11-22T09:54:56.619Z,88.78
2016-11-22T09:55:56.748Z,88.4
2016-11-22T09:56:56.356Z,88.21
2016-11-22T09:57:56.145Z,88.02
2016-11-22T09:58:57.126Z,88.88
2016-11-22T09:59:56.632Z,88.88
2016-11-22T10:00:56.255Z,87.93
2016-11-22T10:01:55.900Z,87.26
2016-11-22T10:02:55.780Z,87.4
2016-11-22T10:03:55.796Z,86.44
2016-11-22T10:04:56.377Z,87.02
2016-11-22T10:05:56.135Z,86.73
2016-11-22T10:06:56.863Z,85.87
2016-11-22T10:07:56.141Z,86.54
2016-11-22T10:08:56.513Z,86.06
2016-11-22T10:09:56.520Z,86.25
2016-11-22T10:10:56.519Z,86.63
2016-11-22T10:11:58.556Z,87.68
2016-11-22T10:12:56.760Z,87.21
2016-11-22T10:13:56.394Z,87.3
2016-11-22T10:14:56.390Z,86.77
2016-11-22T10:15:56.763Z,86.68
2016-11-22T10:16:56.858Z,85.05
2016-11-22T10:17:56.971Z,84.77
2016-11-22T10:18:56.644Z,83.81
2016-11-22T10:19:56.507Z,83.53
2016-11-22T10:20:56.735Z,84
2016-11-22T10:21:56.502Z,84.86
2016-11-22T10:22:56.637Z,84.2
2016-11-22T10:23:56.839Z,84.1
2016-11-22T10:24:56.945Z,85.34
2016-11-22T10:25:56.871Z,84.96
2016-11-22T10:26:56.862Z,85.05
2016-11-22T10:27:57.365Z,84.96
2016-11-22T10:28:56.870Z,86.39
2016-11-22T10:29:56.994Z,86.39
2016-11-22T10:30:57.458Z,84.96
2016-11-22T10:31:57.123Z,84.29
2016-11-22T10:32:57.338Z,85.72
2016-11-22T10:33:56.648Z,85.72
2016-11-22T10:34:56.736Z,85.63
2016-11-22T10:35:57.130Z,86.1
2016-11-22T10:36:56.755Z,85.63
2016-11-22T10:37:56.982Z,86.01
2016-11-22T10:38:56.753Z,85.15
2016-11-22T10:39:57.253Z,84.96
2016-11-22T10:40:56.976Z,84.96
2016-11-22T10:41:57.248Z,85.15
2016-11-22T10:42:57.114Z,85.15
2016-11-22T10:43:57.343Z,86.3
2016-11-22T10:44:56.987Z,86.01
2016-11-22T10:45:57.030Z,85.05
2016-11-22T10:46:57.131Z,84.58
2016-11-22T10:47:57.375Z,84
2016-11-22T10:48:56.888Z,83.81
2016-11-22T10:49:57.024Z,84.2
2016-11-22T10:50:56.886Z,84.67
2016-11-22T10:51:57.019Z,85.05
2016-11-22T10:52:57.260Z,84.67
2016-11-22T10:53:57.381Z,85.25
2016-11-22T10:54:57.386Z,85.53
2016-11-22T10:55:57.593Z,84.96
2016-11-22T10:56:57.356Z,83.86
2016-11-22T10:57:57.026Z,82.95
2016-11-22T10:58:56.998Z,82.42
2016-11-22T10:59:57.368Z,84.1
2016-11-22T11:00:57.514Z,82.04
2016-11-22T11:01:57.586Z,81.09
2016-11-22T11:02:57.605Z,81.37
2016-11-22T11:03:57.254Z,81.47
2016-11-22T11:04:57.271Z,81.81
2016-11-22T11:05:57.725Z,82.38
2016-11-22T11:06:57.355Z,82.42
2016-11-22T11:07:57.272Z,81.09
2016-11-22T11:08:57.253Z,80.8
2016-11-22T11:09:58.124Z,82.52
2016-11-22T11:10:57.606Z,83.38
2016-11-22T11:11:57.648Z,82.42
2016-11-22T11:12:57.994Z,83.76
2016-11-22T11:13:57.275Z,81.85
2016-11-22T11:14:57.382Z,81.85
2016-11-22T11:15:57.715Z,81.85
2016-11-22T11:16:57.284Z,81.76
2016-11-22T11:17:57.604Z,83.57
2016-11-22T11:18:57.375Z,83.09
2016-11-22T11:19:57.495Z,82.04
2016-11-22T11:20:58.087Z,83
2016-11-22T11:21:58.571Z,84.23
2016-11-22T11:22:57.877Z,83.86
2016-11-22T11:23:58.378Z,83.67
2016-11-22T11:24:58.831Z,82.71
2016-11-22T11:25:58.111Z,82.9
2016-11-22T11:26:57.744Z,83.28
2016-11-22T11:27:58.362Z,83
2016-11-22T11:28:58.721Z,83
2016-11-22T11:29:58.363Z,82.32
2016-11-22T11:30:58.117Z,83.09
2016-11-22T11:31:57.983Z,82.52
2016-11-22T11:32:57.857Z,82.42
2016-11-22T11:33:58.005Z,82.61
2016-11-22T11:34:58.221Z,81.66
2016-11-22T11:35:58.691Z,82.42
2016-11-22T11:36:58.497Z,82.52
2016-11-22T11:37:58.126Z,82.32
2016-11-22T11:38:58.459Z,81.18
2016-11-22T11:39:58.251Z,81.56
2016-11-22T11:40:58.220Z,81.76
2016-11-22T11:41:58.371Z,81.85
2016-11-22T11:42:58.210Z,82.32
2016-11-22T11:43:58.344Z,82.52
2016-11-22T11:44:58.492Z,81.85
2016-11-22T11:45:58.484Z,82.65
2016-11-22T11:46:58.501Z,83.13
2016-11-22T11:47:58.614Z,83.04
2016-11-22T11:48:58.816Z,83.51
2016-11-22T11:49:58.741Z,83.33
2016-11-22T11:50:58.346Z,82.65
2016-11-22T11:51:58.349Z,81.6
2016-11-22T11:52:58.748Z,81.13
2016-11-22T11:53:58.829Z,81.89
2016-11-22T11:54:58.360Z,81.22
2016-11-22T11:55:58.580Z,80.17
2016-11-22T11:56:59.181Z,81.22
2016-11-22T11:57:58.966Z,81.13
2016-11-22T11:58:59.097Z,81.99
2016-11-22T11:59:58.729Z,81.89
2016-11-22T12:00:58.938Z,81.6
2016-11-22T12:01:58.858Z,81.99
2016-11-22T12:02:58.582Z,82.37
2016-11-22T12:03:58.855Z,82.46
2016-11-22T12:04:58.459Z,82.65
2016-11-22T12:05:59.107Z,82.65
2016-11-22T12:06:58.985Z,82.18
2016-11-22T12:07:58.983Z,82.32
2016-11-22T12:08:59.344Z,82.52
2016-11-22T12:09:58.953Z,83
2016-11-22T12:10:59.346Z,83.86
2016-11-22T12:11:58.959Z,83.67
2016-11-22T12:12:59.225Z,83.67
2016-11-22T12:13:59.606Z,84.05
2016-11-22T12:14:59.346Z,83.28
2016-11-22T12:15:59.692Z,84.43
2016-11-22T12:16:59.337Z,83.86
2016-11-22T12:17:59.338Z,84.05
2016-11-22T12:18:59.587Z,84.43
2016-11-22T12:19:59.563Z,83.57
2016-11-22T12:20:59.456Z,84.43
2016-11-22T12:21:59.609Z,83.95
2016-11-22T12:22:59.711Z,83.95
2016-11-22T12:23:59.825Z,83.18
2016-11-22T12:24:59.218Z,83.67
2016-11-22T12:26:00.076Z,84.14
2016-11-22T12:27:00.194Z,83.67
2016-11-22T12:27:59.113Z,84.14
2016-11-22T12:29:00.076Z,84.43
2016-11-22T12:30:00.555Z,85
2016-11-22T12:30:59.698Z,83.76
2016-11-22T12:31:59.364Z,83.57
2016-11-22T12:33:01.654Z,84.14
2016-11-22T12:33:59.931Z,84.62
2016-11-22T12:34:59.690Z,84.43
2016-11-22T12:35:59.581Z,84.43
2016-11-22T12:37:00.423Z,84.33
2016-11-22T12:38:00.081Z,84.62
2016-11-22T12:39:00.158Z,84.23
2016-11-22T12:40:00.921Z,84.43
2016-11-22T12:41:01.488Z,84.62
2016-11-22T12:42:01.159Z,83.76
2016-11-22T12:43:00.080Z,83.47
2016-11-22T12:44:00.179Z,83.18
2016-11-22T12:45:00.036Z,83.47
2016-11-22T12:45:58.989Z,83.38
2016-11-22T12:48:58.885Z,86.43
2016-11-22T12:49:59.555Z,86.53
2016-11-22T12:51:00.379Z,85.1
2016-11-22T12:51:59.447Z,85.67
2016-11-22T12:52:59.906Z,84.91
2016-11-22T12:54:00.148Z,84.62
2016-11-22T12:54:59.808Z,85.38
2016-11-22T12:55:59.355Z,85.38
2016-11-22T12:56:59.491Z,85.29